Aérodrome :
LOGIN :

S'inscrire | Disclaimer

   EN    FR    IT 

 










Légende :    VFR   VFR Marginal   IFR   IFR Intensif   IFR Très Intensif
Visi : 
Plafond : 
>= 8 km
>= 3000ft
5 à 8 km
1000 à 3000 ft
1500m à 5 km
500 à 1000 ft
800 à 1500m
200 à 500 ft
< 800m
< 200 ft
Symboles :   Orages  Brouillard  Fortes neiges  Fortes précipitations  Vent > 20 kt
SIGMETs :   Divers  Orages  Givrage  Turbulence  Onde Orograph.  Cendres Volcan.







- Altitude de l'aérodrome : 392 ft
- Code IATA : CDG
- Voir les cartes d'approche


LFPG - Paris-Aeroport Charles De Gaulle

DERNIER METAR :
  • 251400Z 06007KT 9999 FEW045CB BKN047 24/14 Q1016 TEMPO VRB15G30KT 2500 TSRA BKN030CB

METARs EXPIRÉS :
  • 251330Z 07007KT 010V130 9999 FEW045 FEW049TCU 25/14 Q1016 TEMPO VRB15G30KT 2500 TSRA BKN030CB
  • 251300Z 06007KT 020V100 9999 FEW045 FEW047TCU 25/14 Q1017 TEMPO VRB15G30KT 2500 TSRA BKN030CB
  • 251230Z 07006KT 030V120 9999 FEW041 BKN250 25/15 Q1017 BECMG SCT040TCU
  • 251200Z 06006KT 010V120 9999 FEW041 BKN230 25/14 Q1017 BECMG SCT040TCU
  • 251130Z 06005KT 320V120 9999 FEW035 SCT230 24/14 Q1017 BECMG SCT040TCU

TAF TAF LFPG
Valide du 25 à 12h jusqu'au 26 à 18h UTC


251100Z 2512/2618 04005KT 9999 FEW030TCU
PROB40
TEMPO 2513/2601 VRB15G30KT 2500 TSRA BKN030CB
PROB30
TEMPO 2515/2521 TSRAGR
BECMG 2601/2603 NSC
BECMG 2609/2611 FEW030TCU
PROB40
TEMPO 2614/2618 VRB15G25KT 2500 TSRA BKN030CB TX30/2615Z TN16/2604Z
ATIS : +33 1 48 62 10 92
Pas de NOTAMs connus pour ce terrain.
1 SIGMET publié pour la FIR Paris (LFFF) :
 
Orages noyés dans la masse
LFFF SIGMET 1 VALID 251315/251500 LFPW
LFFF PARIS FIR/UIR EMBD TS OBS S OF N4815 AND W OF E00045 TOP FL300 MOV N 15KT NC=



MET'MAP, la Météo Aéronautique d'un coup d'oeil ! - Copyright ORBIFLY Décembre 2007 - Disclaimer

ORBIFLY MET'MAP TEAM :

Programmation & Développement : Alexandra Zaïnal
Conception & Développement : Baudouin d'Aumeries
Co-Programmation & Développement : Marc-Olivier Méhu
Soutien technique & logistique : Manuel Goepfert

Contact : metmap@orbifly.com




SOURCES & CREDITS :

   NOAA